sensor_id;sensor_type;location;lat;lon;timestamp;P1;durP1;ratioP1;P2;durP2;ratioP2
50433;SDS011;36361;38.954;-9.002;2023-09-08T00:00:00;14.90;;;7.63;;
50433;SDS011;36361;38.954;-9.002;2023-09-08T00:01:04;14.27;;;7.60;;
50433;SDS011;36361;38.954;-9.002;2023-09-08T00:02:05;17.90;;;8.77;;
50433;SDS011;36361;38.954;-9.002;2023-09-08T00:03:06;16.75;;;7.70;;
50433;SDS011;36361;38.954;-9.002;2023-09-08T00:04:07;16.40;;;7.72;;
50433;SDS011;36361;38.954;-9.002;2023-09-08T00:05:07;13.77;;;7.18;;
50433;SDS011;36361;38.954;-9.002;2023-09-08T00:06:08;12.90;;;7.22;;
50433;SDS011;36361;38.954;-9.002;2023-09-08T00:07:09;13.00;;;7.63;;
50433;SDS011;36361;38.954;-9.002;2023-09-08T00:08:09;12.93;;;7.47;;
50433;SDS011;36361;38.954;-9.002;2023-09-08T00:09:10;15.88;;;8.23;;
50433;SDS011;36361;38.954;-9.002;2023-09-08T00:10:11;16.70;;;8.98;;
50433;SDS011;36361;38.954;-9.002;2023-09-08T00:11:12;15.68;;;7.65;;
50433;SDS011;36361;38.954;-9.002;2023-09-08T00:12:13;16.38;;;7.63;;
50433;SDS011;36361;38.954;-9.002;2023-09-08T00:13:14;15.10;;;7.55;;
50433;SDS011;36361;38.954;-9.002;2023-09-08T00:14:15;14.68;;;7.78;;
50433;SDS011;36361;38.954;-9.002;2023-09-08T00:15:15;12.70;;;6.72;;
50433;SDS011;36361;38.954;-9.002;2023-09-08T00:16:16;16.25;;;7.35;;
50433;SDS011;36361;38.954;-9.002;2023-09-08T00:17:17;14.52;;;7.07;;
50433;SDS011;36361;38.954;-9.002;2023-09-08T00:18:20;15.07;;;7.22;;
50433;SDS011;36361;38.954;-9.002;2023-09-08T00:19:21;13.05;;;5.97;;
50433;SDS011;36361;38.954;-9.002;2023-09-08T00:20:23;12.73;;;6.10;;
50433;SDS011;36361;38.954;-9.002;2023-09-08T00:21:24;12.07;;;6.53;;
50433;SDS011;36361;38.954;-9.002;2023-09-08T00:22:25;15.23;;;7.15;;
50433;SDS011;36361;38.954;-9.002;2023-09-08T00:23:26;16.83;;;7.90;;
50433;SDS011;36361;38.954;-9.002;2023-09-08T00:24:28;13.35;;;7.10;;
50433;SDS011;36361;38.954;-9.002;2023-09-08T00:25:29;13.20;;;7.57;;
50433;SDS011;36361;38.954;-9.002;2023-09-08T00:26:29;10.98;;;5.72;;
50433;SDS011;36361;38.954;-9.002;2023-09-08T00:27:31;17.17;;;6.57;;
50433;SDS011;36361;38.954;-9.002;2023-09-08T00:28:32;13.60;;;5.85;;
50433;SDS011;36361;38.954;-9.002;2023-09-08T00:29:32;10.27;;;5.45;;
50433;SDS011;36361;38.954;-9.002;2023-09-08T00:30:33;10.00;;;5.10;;
50433;SDS011;36361;38.954;-9.002;2023-09-08T00:31:34;12.38;;;6.10;;
50433;SDS011;36361;38.954;-9.002;2023-09-08T00:32:35;17.48;;;6.25;;
50433;SDS011;36361;38.954;-9.002;2023-09-08T00:33:35;12.38;;;5.03;;
50433;SDS011;36361;38.954;-9.002;2023-09-08T00:34:37;11.45;;;5.07;;
50433;SDS011;36361;38.954;-9.002;2023-09-08T00:35:40;10.15;;;4.90;;
50433;SDS011;36361;38.954;-9.002;2023-09-08T00:36:44;10.98;;;4.65;;
50433;SDS011;36361;38.954;-9.002;2023-09-08T00:37:45;12.23;;;4.60;;
50433;SDS011;36361;38.954;-9.002;2023-09-08T00:38:45;11.80;;;5.40;;
50433;SDS011;36361;38.954;-9.002;2023-09-08T00:39:46;14.43;;;5.43;;
50433;SDS011;36361;38.954;-9.002;2023-09-08T00:40:47;11.77;;;4.97;;
50433;SDS011;36361;38.954;-9.002;2023-09-08T00:41:50;14.80;;;5.70;;
50433;SDS011;36361;38.954;-9.002;2023-09-08T00:42:51;11.75;;;5.65;;
50433;SDS011;36361;38.954;-9.002;2023-09-08T00:43:51;8.38;;;4.30;;
50433;SDS011;36361;38.954;-9.002;2023-09-08T00:44:55;11.75;;;4.63;;
50433;SDS011;36361;38.954;-9.002;2023-09-08T00:45:56;11.30;;;4.93;;
50433;SDS011;36361;38.954;-9.002;2023-09-08T00:47:01;14.43;;;4.85;;
50433;SDS011;36361;38.954;-9.002;2023-09-08T00:48:02;10.95;;;5.43;;
50433;SDS011;36361;38.954;-9.002;2023-09-08T00:49:03;15.18;;;5.18;;
50433;SDS011;36361;38.954;-9.002;2023-09-08T00:50:05;11.63;;;5.30;;
50433;SDS011;36361;38.954;-9.002;2023-09-08T00:51:07;10.10;;;4.65;;
50433;SDS011;36361;38.954;-9.002;2023-09-08T00:52:10;13.00;;;5.05;;
50433;SDS011;36361;38.954;-9.002;2023-09-08T00:53:10;12.15;;;4.65;;
50433;SDS011;36361;38.954;-9.002;2023-09-08T00:54:11;13.35;;;4.95;;
50433;SDS011;36361;38.954;-9.002;2023-09-08T00:55:12;10.02;;;5.03;;
50433;SDS011;36361;38.954;-9.002;2023-09-08T00:56:13;13.70;;;5.50;;
50433;SDS011;36361;38.954;-9.002;2023-09-08T00:57:14;11.43;;;5.07;;
50433;SDS011;36361;38.954;-9.002;2023-09-08T00:58:16;14.10;;;6.28;;
50433;SDS011;36361;38.954;-9.002;2023-09-08T00:59:17;16.98;;;5.35;;
50433;SDS011;36361;38.954;-9.002;2023-09-08T01:00:18;11.57;;;4.97;;
50433;SDS011;36361;38.954;-9.002;2023-09-08T01:01:18;11.07;;;5.60;;
50433;SDS011;36361;38.954;-9.002;2023-09-08T01:02:20;10.38;;;4.85;;
50433;SDS011;36361;38.954;-9.002;2023-09-08T01:03:22;10.30;;;5.25;;
50433;SDS011;36361;38.954;-9.002;2023-09-08T01:04:22;12.95;;;5.85;;
50433;SDS011;36361;38.954;-9.002;2023-09-08T01:05:23;10.93;;;5.32;;
50433;SDS011;36361;38.954;-9.002;2023-09-08T01:06:24;8.52;;;4.93;;
50433;SDS011;36361;38.954;-9.002;2023-09-08T01:07:25;12.95;;;5.40;;
50433;SDS011;36361;38.954;-9.002;2023-09-08T01:08:30;13.02;;;4.80;;
50433;SDS011;36361;38.954;-9.002;2023-09-08T01:09:31;8.30;;;4.95;;
50433;SDS011;36361;38.954;-9.002;2023-09-08T01:10:32;12.90;;;5.72;;
50433;SDS011;36361;38.954;-9.002;2023-09-08T01:11:35;10.93;;;4.68;;
50433;SDS011;36361;38.954;-9.002;2023-09-08T01:12:36;9.55;;;5.03;;
50433;SDS011;36361;38.954;-9.002;2023-09-08T01:13:40;10.90;;;5.18;;
50433;SDS011;36361;38.954;-9.002;2023-09-08T01:14:43;9.38;;;5.03;;
50433;SDS011;36361;38.954;-9.002;2023-09-08T01:15:44;10.02;;;5.65;;
50433;SDS011;36361;38.954;-9.002;2023-09-08T01:16:45;10.65;;;5.25;;
50433;SDS011;36361;38.954;-9.002;2023-09-08T01:17:46;11.02;;;5.25;;
50433;SDS011;36361;38.954;-9.002;2023-09-08T01:18:49;9.82;;;5.35;;
50433;SDS011;36361;38.954;-9.002;2023-09-08T01:19:54;15.30;;;5.60;;
50433;SDS011;36361;38.954;-9.002;2023-09-08T01:26:28;11.90;;;5.38;;
50433;SDS011;36361;38.954;-9.002;2023-09-08T01:27:37;12.68;;;5.93;;
50433;SDS011;36361;38.954;-9.002;2023-09-08T01:28:39;12.57;;;5.63;;
50433;SDS011;36361;38.954;-9.002;2023-09-08T01:29:42;11.68;;;6.00;;
50433;SDS011;36361;38.954;-9.002;2023-09-08T01:30:44;15.02;;;5.57;;
50433;SDS011;36361;38.954;-9.002;2023-09-08T01:31:45;11.43;;;6.15;;
50433;SDS011;36361;38.954;-9.002;2023-09-08T01:32:49;14.05;;;5.88;;
50433;SDS011;36361;38.954;-9.002;2023-09-08T01:33:55;9.82;;;5.78;;
50433;SDS011;36361;38.954;-9.002;2023-09-08T01:34:56;14.52;;;6.00;;
50433;SDS011;36361;38.954;-9.002;2023-09-08T01:35:59;12.68;;;5.25;;
50433;SDS011;36361;38.954;-9.002;2023-09-08T01:37:00;10.77;;;5.60;;
50433;SDS011;36361;38.954;-9.002;2023-09-08T01:38:04;12.80;;;5.57;;
50433;SDS011;36361;38.954;-9.002;2023-09-08T01:39:05;10.52;;;5.65;;
50433;SDS011;36361;38.954;-9.002;2023-09-08T01:40:06;13.10;;;5.85;;
50433;SDS011;36361;38.954;-9.002;2023-09-08T01:41:07;12.80;;;6.13;;
50433;SDS011;36361;38.954;-9.002;2023-09-08T01:42:08;9.75;;;5.35;;
50433;SDS011;36361;38.954;-9.002;2023-09-08T01:43:08;13.48;;;6.68;;
50433;SDS011;36361;38.954;-9.002;2023-09-08T01:44:09;11.98;;;6.22;;
50433;SDS011;36361;38.954;-9.002;2023-09-08T01:45:12;11.52;;;6.40;;
50433;SDS011;36361;38.954;-9.002;2023-09-08T01:46:12;12.43;;;6.80;;
50433;SDS011;36361;38.954;-9.002;2023-09-08T01:47:13;13.88;;;8.02;;
50433;SDS011;36361;38.954;-9.002;2023-09-08T01:48:14;12.88;;;8.05;;
50433;SDS011;36361;38.954;-9.002;2023-09-08T01:49:14;11.82;;;7.85;;
50433;SDS011;36361;38.954;-9.002;2023-09-08T01:50:16;12.73;;;7.80;;
50433;SDS011;36361;38.954;-9.002;2023-09-08T01:51:21;13.65;;;7.65;;
50433;SDS011;36361;38.954;-9.002;2023-09-08T01:52:22;12.68;;;7.75;;
50433;SDS011;36361;38.954;-9.002;2023-09-08T01:53:29;15.50;;;8.40;;
50433;SDS011;36361;38.954;-9.002;2023-09-08T01:54:30;14.60;;;8.00;;
50433;SDS011;36361;38.954;-9.002;2023-09-08T01:55:31;15.90;;;8.57;;
50433;SDS011;36361;38.954;-9.002;2023-09-08T01:56:31;12.15;;;7.45;;
50433;SDS011;36361;38.954;-9.002;2023-09-08T01:57:32;11.38;;;7.28;;
50433;SDS011;36361;38.954;-9.002;2023-09-08T01:58:33;10.00;;;7.55;;
50433;SDS011;36361;38.954;-9.002;2023-09-08T01:59:37;12.63;;;6.85;;
50433;SDS011;36361;38.954;-9.002;2023-09-08T02:00:38;10.00;;;6.65;;
50433;SDS011;36361;38.954;-9.002;2023-09-08T02:01:40;10.18;;;6.50;;
50433;SDS011;36361;38.954;-9.002;2023-09-08T02:02:42;14.88;;;7.22;;
50433;SDS011;36361;38.954;-9.002;2023-09-08T02:03:48;12.63;;;6.88;;
50433;SDS011;36361;38.954;-9.002;2023-09-08T02:04:49;13.00;;;6.65;;
50433;SDS011;36361;38.954;-9.002;2023-09-08T02:05:50;13.07;;;6.70;;
50433;SDS011;36361;38.954;-9.002;2023-09-08T02:06:51;9.98;;;6.43;;
50433;SDS011;36361;38.954;-9.002;2023-09-08T02:07:53;12.27;;;7.50;;
50433;SDS011;36361;38.954;-9.002;2023-09-08T02:08:56;15.80;;;7.25;;
50433;SDS011;36361;38.954;-9.002;2023-09-08T02:09:57;11.50;;;6.45;;
50433;SDS011;36361;38.954;-9.002;2023-09-08T02:10:57;12.85;;;7.15;;
50433;SDS011;36361;38.954;-9.002;2023-09-08T02:11:58;14.52;;;6.93;;
50433;SDS011;36361;38.954;-9.002;2023-09-08T02:12:59;13.30;;;7.22;;
50433;SDS011;36361;38.954;-9.002;2023-09-08T02:14:00;16.63;;;8.05;;
50433;SDS011;36361;38.954;-9.002;2023-09-08T02:15:01;17.48;;;8.52;;
50433;SDS011;36361;38.954;-9.002;2023-09-08T02:16:02;11.60;;;7.70;;
50433;SDS011;36361;38.954;-9.002;2023-09-08T02:17:02;18.63;;;8.45;;
50433;SDS011;36361;38.954;-9.002;2023-09-08T02:18:03;12.52;;;8.25;;
50433;SDS011;36361;38.954;-9.002;2023-09-08T02:19:04;12.82;;;8.15;;
50433;SDS011;36361;38.954;-9.002;2023-09-08T02:20:05;18.73;;;9.60;;
50433;SDS011;36361;38.954;-9.002;2023-09-08T02:21:07;14.48;;;9.75;;
50433;SDS011;36361;38.954;-9.002;2023-09-08T02:22:08;14.85;;;8.73;;
50433;SDS011;36361;38.954;-9.002;2023-09-08T02:23:09;15.38;;;9.15;;
50433;SDS011;36361;38.954;-9.002;2023-09-08T02:24:10;15.60;;;10.38;;
50433;SDS011;36361;38.954;-9.002;2023-09-08T02:25:12;12.43;;;9.48;;
50433;SDS011;36361;38.954;-9.002;2023-09-08T02:26:14;13.43;;;9.18;;
50433;SDS011;36361;38.954;-9.002;2023-09-08T02:27:18;16.05;;;8.57;;
50433;SDS011;36361;38.954;-9.002;2023-09-08T02:28:28;14.13;;;8.88;;
50433;SDS011;36361;38.954;-9.002;2023-09-08T02:29:30;13.40;;;8.85;;
50433;SDS011;36361;38.954;-9.002;2023-09-08T02:30:33;14.27;;;8.32;;
50433;SDS011;36361;38.954;-9.002;2023-09-08T02:31:40;15.95;;;8.98;;
50433;SDS011;36361;38.954;-9.002;2023-09-08T02:32:45;13.98;;;9.55;;
50433;SDS011;36361;38.954;-9.002;2023-09-08T02:33:47;15.23;;;8.07;;
50433;SDS011;36361;38.954;-9.002;2023-09-08T02:34:51;15.07;;;8.73;;
50433;SDS011;36361;38.954;-9.002;2023-09-08T02:35:53;19.83;;;9.95;;
50433;SDS011;36361;38.954;-9.002;2023-09-08T02:36:54;17.58;;;9.32;;
50433;SDS011;36361;38.954;-9.002;2023-09-08T02:37:58;16.52;;;9.82;;
50433;SDS011;36361;38.954;-9.002;2023-09-08T02:39:01;13.48;;;9.18;;
50433;SDS011;36361;38.954;-9.002;2023-09-08T02:40:02;13.30;;;8.95;;
50433;SDS011;36361;38.954;-9.002;2023-09-08T02:41:04;17.77;;;10.23;;
50433;SDS011;36361;38.954;-9.002;2023-09-08T02:42:05;19.67;;;9.85;;
50433;SDS011;36361;38.954;-9.002;2023-09-08T02:43:06;19.10;;;9.93;;
50433;SDS011;36361;38.954;-9.002;2023-09-08T02:44:06;17.35;;;9.25;;
50433;SDS011;36361;38.954;-9.002;2023-09-08T02:45:07;18.75;;;10.63;;
50433;SDS011;36361;38.954;-9.002;2023-09-08T02:46:08;17.83;;;10.27;;
50433;SDS011;36361;38.954;-9.002;2023-09-08T02:47:10;13.93;;;8.90;;
50433;SDS011;36361;38.954;-9.002;2023-09-08T02:48:12;14.57;;;9.48;;
50433;SDS011;36361;38.954;-9.002;2023-09-08T02:49:13;15.25;;;10.10;;
50433;SDS011;36361;38.954;-9.002;2023-09-08T02:50:14;17.48;;;9.60;;
50433;SDS011;36361;38.954;-9.002;2023-09-08T02:51:14;16.75;;;9.13;;
50433;SDS011;36361;38.954;-9.002;2023-09-08T02:52:15;19.08;;;9.27;;
50433;SDS011;36361;38.954;-9.002;2023-09-08T02:53:16;17.15;;;10.00;;
50433;SDS011;36361;38.954;-9.002;2023-09-08T02:54:22;16.30;;;8.85;;
50433;SDS011;36361;38.954;-9.002;2023-09-08T02:55:23;15.32;;;8.98;;
50433;SDS011;36361;38.954;-9.002;2023-09-08T02:56:24;18.95;;;10.38;;
50433;SDS011;36361;38.954;-9.002;2023-09-08T02:57:26;14.43;;;9.13;;
50433;SDS011;36361;38.954;-9.002;2023-09-08T02:58:27;16.08;;;9.68;;
50433;SDS011;36361;38.954;-9.002;2023-09-08T02:59:28;13.77;;;9.20;;
50433;SDS011;36361;38.954;-9.002;2023-09-08T03:00:37;16.77;;;10.10;;
50433;SDS011;36361;38.954;-9.002;2023-09-08T03:01:44;12.82;;;8.40;;
50433;SDS011;36361;38.954;-9.002;2023-09-08T03:02:44;15.95;;;9.23;;
50433;SDS011;36361;38.954;-9.002;2023-09-08T03:03:46;16.02;;;9.43;;
50433;SDS011;36361;38.954;-9.002;2023-09-08T03:04:48;13.68;;;8.23;;
50433;SDS011;36361;38.954;-9.002;2023-09-08T03:05:53;17.48;;;9.02;;
50433;SDS011;36361;38.954;-9.002;2023-09-08T03:06:56;13.43;;;8.48;;
50433;SDS011;36361;38.954;-9.002;2023-09-08T03:07:56;16.77;;;9.27;;
50433;SDS011;36361;38.954;-9.002;2023-09-08T03:08:58;13.80;;;8.88;;
50433;SDS011;36361;38.954;-9.002;2023-09-08T03:09:59;17.20;;;9.40;;
50433;SDS011;36361;38.954;-9.002;2023-09-08T03:11:00;13.13;;;8.60;;
50433;SDS011;36361;38.954;-9.002;2023-09-08T03:12:01;12.20;;;8.05;;
50433;SDS011;36361;38.954;-9.002;2023-09-08T03:13:04;16.08;;;8.35;;
50433;SDS011;36361;38.954;-9.002;2023-09-08T03:14:05;15.18;;;8.93;;
50433;SDS011;36361;38.954;-9.002;2023-09-08T03:15:06;13.05;;;7.53;;
50433;SDS011;36361;38.954;-9.002;2023-09-08T03:16:07;13.77;;;7.45;;
50433;SDS011;36361;38.954;-9.002;2023-09-08T03:17:09;12.73;;;8.05;;
50433;SDS011;36361;38.954;-9.002;2023-09-08T03:18:09;12.43;;;8.15;;
50433;SDS011;36361;38.954;-9.002;2023-09-08T03:19:10;8.75;;;7.47;;
50433;SDS011;36361;38.954;-9.002;2023-09-08T03:20:11;12.65;;;7.68;;
50433;SDS011;36361;38.954;-9.002;2023-09-08T03:21:13;11.50;;;7.53;;
50433;SDS011;36361;38.954;-9.002;2023-09-08T03:22:14;14.13;;;8.18;;
50433;SDS011;36361;38.954;-9.002;2023-09-08T03:23:15;14.32;;;8.02;;
50433;SDS011;36361;38.954;-9.002;2023-09-08T03:24:16;11.23;;;7.80;;
50433;SDS011;36361;38.954;-9.002;2023-09-08T03:25:23;10.55;;;7.30;;
50433;SDS011;36361;38.954;-9.002;2023-09-08T03:26:23;13.18;;;7.00;;
50433;SDS011;36361;38.954;-9.002;2023-09-08T03:27:30;11.35;;;6.90;;
50433;SDS011;36361;38.954;-9.002;2023-09-08T03:28:31;9.25;;;7.45;;
50433;SDS011;36361;38.954;-9.002;2023-09-08T03:29:34;11.63;;;7.22;;
50433;SDS011;36361;38.954;-9.002;2023-09-08T03:30:35;9.52;;;7.15;;
50433;SDS011;36361;38.954;-9.002;2023-09-08T03:31:36;10.48;;;6.93;;
50433;SDS011;36361;38.954;-9.002;2023-09-08T03:32:39;12.93;;;6.70;;
50433;SDS011;36361;38.954;-9.002;2023-09-08T03:33:49;11.40;;;6.63;;
50433;SDS011;36361;38.954;-9.002;2023-09-08T03:34:50;8.85;;;6.10;;
50433;SDS011;36361;38.954;-9.002;2023-09-08T03:35:53;12.38;;;7.18;;
50433;SDS011;36361;38.954;-9.002;2023-09-08T03:36:55;13.55;;;6.72;;
50433;SDS011;36361;38.954;-9.002;2023-09-08T03:37:56;15.45;;;6.78;;
50433;SDS011;36361;38.954;-9.002;2023-09-08T03:38:57;10.85;;;6.78;;
50433;SDS011;36361;38.954;-9.002;2023-09-08T03:40:00;11.57;;;7.00;;
50433;SDS011;36361;38.954;-9.002;2023-09-08T03:41:01;9.70;;;5.95;;
50433;SDS011;36361;38.954;-9.002;2023-09-08T03:42:03;9.75;;;5.78;;
50433;SDS011;36361;38.954;-9.002;2023-09-08T03:43:04;8.45;;;5.65;;
50433;SDS011;36361;38.954;-9.002;2023-09-08T03:44:05;7.63;;;6.10;;
50433;SDS011;36361;38.954;-9.002;2023-09-08T03:45:05;10.98;;;6.85;;
50433;SDS011;36361;38.954;-9.002;2023-09-08T03:46:06;7.88;;;5.13;;
50433;SDS011;36361;38.954;-9.002;2023-09-08T03:47:07;11.00;;;6.05;;
50433;SDS011;36361;38.954;-9.002;2023-09-08T03:48:09;8.25;;;5.55;;
50433;SDS011;36361;38.954;-9.002;2023-09-08T03:49:10;10.23;;;6.10;;
50433;SDS011;36361;38.954;-9.002;2023-09-08T03:50:11;9.27;;;5.50;;
50433;SDS011;36361;38.954;-9.002;2023-09-08T03:51:12;11.40;;;5.90;;
50433;SDS011;36361;38.954;-9.002;2023-09-08T03:52:13;8.00;;;5.38;;
50433;SDS011;36361;38.954;-9.002;2023-09-08T03:53:14;9.63;;;5.57;;
50433;SDS011;36361;38.954;-9.002;2023-09-08T03:54:14;9.27;;;5.55;;
50433;SDS011;36361;38.954;-9.002;2023-09-08T03:55:15;7.90;;;5.20;;
50433;SDS011;36361;38.954;-9.002;2023-09-08T03:56:17;12.60;;;5.53;;
50433;SDS011;36361;38.954;-9.002;2023-09-08T03:57:18;10.60;;;5.40;;
50433;SDS011;36361;38.954;-9.002;2023-09-08T03:58:18;6.88;;;5.10;;
50433;SDS011;36361;38.954;-9.002;2023-09-08T03:59:19;9.88;;;5.15;;
50433;SDS011;36361;38.954;-9.002;2023-09-08T04:00:20;7.85;;;4.78;;
50433;SDS011;36361;38.954;-9.002;2023-09-08T04:01:22;8.15;;;4.88;;
50433;SDS011;36361;38.954;-9.002;2023-09-08T04:02:23;6.82;;;4.65;;
50433;SDS011;36361;38.954;-9.002;2023-09-08T04:03:24;10.35;;;5.90;;
50433;SDS011;36361;38.954;-9.002;2023-09-08T04:04:25;10.65;;;5.10;;
50433;SDS011;36361;38.954;-9.002;2023-09-08T04:05:25;6.72;;;4.85;;
50433;SDS011;36361;38.954;-9.002;2023-09-08T04:06:26;7.65;;;4.88;;
50433;SDS011;36361;38.954;-9.002;2023-09-08T04:07:28;8.23;;;5.40;;
50433;SDS011;36361;38.954;-9.002;2023-09-08T04:08:29;9.43;;;4.57;;
50433;SDS011;36361;38.954;-9.002;2023-09-08T04:09:30;8.90;;;5.00;;
50433;SDS011;36361;38.954;-9.002;2023-09-08T04:10:32;9.05;;;4.88;;
50433;SDS011;36361;38.954;-9.002;2023-09-08T04:11:32;7.00;;;4.75;;
50433;SDS011;36361;38.954;-9.002;2023-09-08T04:12:33;10.68;;;5.28;;
50433;SDS011;36361;38.954;-9.002;2023-09-08T04:13:34;9.73;;;4.45;;
50433;SDS011;36361;38.954;-9.002;2023-09-08T04:14:34;7.38;;;5.03;;
50433;SDS011;36361;38.954;-9.002;2023-09-08T04:15:36;6.68;;;4.03;;
50433;SDS011;36361;38.954;-9.002;2023-09-08T04:16:37;6.82;;;4.40;;
50433;SDS011;36361;38.954;-9.002;2023-09-08T04:17:38;8.57;;;4.78;;
50433;SDS011;36361;38.954;-9.002;2023-09-08T04:18:39;6.80;;;4.43;;
50433;SDS011;36361;38.954;-9.002;2023-09-08T04:19:39;7.38;;;4.35;;
50433;SDS011;36361;38.954;-9.002;2023-09-08T04:20:41;9.95;;;4.30;;
50433;SDS011;36361;38.954;-9.002;2023-09-08T04:21:42;7.88;;;4.45;;
50433;SDS011;36361;38.954;-9.002;2023-09-08T04:22:46;7.10;;;4.15;;
50433;SDS011;36361;38.954;-9.002;2023-09-08T04:23:47;7.28;;;4.25;;
50433;SDS011;36361;38.954;-9.002;2023-09-08T04:24:48;7.78;;;4.40;;
50433;SDS011;36361;38.954;-9.002;2023-09-08T04:25:56;8.98;;;3.95;;
50433;SDS011;36361;38.954;-9.002;2023-09-08T04:26:56;6.47;;;4.20;;
50433;SDS011;36361;38.954;-9.002;2023-09-08T04:28:00;8.32;;;3.80;;
50433;SDS011;36361;38.954;-9.002;2023-09-08T04:29:05;8.57;;;4.60;;
50433;SDS011;36361;38.954;-9.002;2023-09-08T04:30:06;6.25;;;4.47;;
50433;SDS011;36361;38.954;-9.002;2023-09-08T04:31:07;5.80;;;4.07;;
50433;SDS011;36361;38.954;-9.002;2023-09-08T04:32:08;6.20;;;3.88;;
50433;SDS011;36361;38.954;-9.002;2023-09-08T04:33:09;7.05;;;4.32;;
50433;SDS011;36361;38.954;-9.002;2023-09-08T04:34:10;7.15;;;4.03;;
50433;SDS011;36361;38.954;-9.002;2023-09-08T04:35:10;7.75;;;4.57;;
50433;SDS011;36361;38.954;-9.002;2023-09-08T04:36:12;7.78;;;4.45;;
50433;SDS011;36361;38.954;-9.002;2023-09-08T04:37:13;6.88;;;4.22;;
50433;SDS011;36361;38.954;-9.002;2023-09-08T04:38:14;8.30;;;4.15;;
50433;SDS011;36361;38.954;-9.002;2023-09-08T04:39:15;5.90;;;4.22;;
50433;SDS011;36361;38.954;-9.002;2023-09-08T04:40:16;6.70;;;4.80;;
50433;SDS011;36361;38.954;-9.002;2023-09-08T04:41:17;9.95;;;5.35;;
50433;SDS011;36361;38.954;-9.002;2023-09-08T04:42:17;9.38;;;5.15;;
50433;SDS011;36361;38.954;-9.002;2023-09-08T04:43:18;8.93;;;5.05;;
50433;SDS011;36361;38.954;-9.002;2023-09-08T04:44:19;7.88;;;4.07;;
50433;SDS011;36361;38.954;-9.002;2023-09-08T04:45:19;7.43;;;4.50;;
50433;SDS011;36361;38.954;-9.002;2023-09-08T04:46:20;8.00;;;4.65;;
50433;SDS011;36361;38.954;-9.002;2023-09-08T04:47:21;9.25;;;4.30;;
50433;SDS011;36361;38.954;-9.002;2023-09-08T04:48:22;7.57;;;4.05;;
50433;SDS011;36361;38.954;-9.002;2023-09-08T04:49:23;7.28;;;4.43;;
50433;SDS011;36361;38.954;-9.002;2023-09-08T04:50:28;7.88;;;4.80;;
50433;SDS011;36361;38.954;-9.002;2023-09-08T04:51:29;8.52;;;4.88;;
50433;SDS011;36361;38.954;-9.002;2023-09-08T04:52:30;7.80;;;4.78;;
50433;SDS011;36361;38.954;-9.002;2023-09-08T04:53:30;8.25;;;5.13;;
50433;SDS011;36361;38.954;-9.002;2023-09-08T04:54:36;9.75;;;4.60;;
50433;SDS011;36361;38.954;-9.002;2023-09-08T04:55:57;7.10;;;5.22;;
50433;SDS011;36361;38.954;-9.002;2023-09-08T04:56:57;7.85;;;4.85;;
50433;SDS011;36361;38.954;-9.002;2023-09-08T04:57:59;7.10;;;4.82;;
50433;SDS011;36361;38.954;-9.002;2023-09-08T04:58:59;6.97;;;4.88;;
50433;SDS011;36361;38.954;-9.002;2023-09-08T05:00:02;7.30;;;5.00;;
50433;SDS011;36361;38.954;-9.002;2023-09-08T05:01:04;10.25;;;5.75;;
50433;SDS011;36361;38.954;-9.002;2023-09-08T05:02:08;8.23;;;5.30;;
50433;SDS011;36361;38.954;-9.002;2023-09-08T05:03:09;7.00;;;4.80;;
50433;SDS011;36361;38.954;-9.002;2023-09-08T05:04:11;9.93;;;5.18;;
50433;SDS011;36361;38.954;-9.002;2023-09-08T05:05:12;9.35;;;5.70;;
50433;SDS011;36361;38.954;-9.002;2023-09-08T05:06:13;6.70;;;4.93;;
50433;SDS011;36361;38.954;-9.002;2023-09-08T05:07:14;9.70;;;5.65;;
50433;SDS011;36361;38.954;-9.002;2023-09-08T05:08:15;7.40;;;4.97;;
50433;SDS011;36361;38.954;-9.002;2023-09-08T05:09:16;10.13;;;5.95;;
50433;SDS011;36361;38.954;-9.002;2023-09-08T05:10:17;8.23;;;5.05;;
50433;SDS011;36361;38.954;-9.002;2023-09-08T05:11:18;8.00;;;4.65;;
50433;SDS011;36361;38.954;-9.002;2023-09-08T05:12:21;5.82;;;4.85;;
50433;SDS011;36361;38.954;-9.002;2023-09-08T05:13:22;7.45;;;4.63;;
50433;SDS011;36361;38.954;-9.002;2023-09-08T05:14:27;7.72;;;4.90;;
50433;SDS011;36361;38.954;-9.002;2023-09-08T05:15:33;6.50;;;5.15;;
50433;SDS011;36361;38.954;-9.002;2023-09-08T05:16:34;10.07;;;5.70;;
50433;SDS011;36361;38.954;-9.002;2023-09-08T05:17:48;9.27;;;5.50;;
50433;SDS011;36361;38.954;-9.002;2023-09-08T05:18:51;7.20;;;5.32;;
50433;SDS011;36361;38.954;-9.002;2023-09-08T05:19:52;7.93;;;5.57;;
50433;SDS011;36361;38.954;-9.002;2023-09-08T05:20:53;8.52;;;5.47;;
50433;SDS011;36361;38.954;-9.002;2023-09-08T05:21:54;9.15;;;5.43;;
50433;SDS011;36361;38.954;-9.002;2023-09-08T05:22:55;9.88;;;5.38;;
50433;SDS011;36361;38.954;-9.002;2023-09-08T05:24:05;7.93;;;5.03;;
50433;SDS011;36361;38.954;-9.002;2023-09-08T05:25:06;7.45;;;5.00;;
50433;SDS011;36361;38.954;-9.002;2023-09-08T05:26:08;7.13;;;4.95;;
50433;SDS011;36361;38.954;-9.002;2023-09-08T05:27:09;9.23;;;5.72;;
50433;SDS011;36361;38.954;-9.002;2023-09-08T05:28:09;10.63;;;6.05;;
50433;SDS011;36361;38.954;-9.002;2023-09-08T05:29:10;9.00;;;5.95;;
50433;SDS011;36361;38.954;-9.002;2023-09-08T05:30:11;7.75;;;5.38;;
50433;SDS011;36361;38.954;-9.002;2023-09-08T05:31:12;9.05;;;6.03;;
50433;SDS011;36361;38.954;-9.002;2023-09-08T05:32:12;8.20;;;5.88;;
50433;SDS011;36361;38.954;-9.002;2023-09-08T05:33:13;7.45;;;5.60;;
50433;SDS011;36361;38.954;-9.002;2023-09-08T05:34:14;9.68;;;6.15;;
50433;SDS011;36361;38.954;-9.002;2023-09-08T05:35:15;10.30;;;6.22;;
50433;SDS011;36361;38.954;-9.002;2023-09-08T05:36:16;10.57;;;7.15;;
50433;SDS011;36361;38.954;-9.002;2023-09-08T05:37:20;11.57;;;6.45;;
50433;SDS011;36361;38.954;-9.002;2023-09-08T05:38:21;12.68;;;8.65;;
50433;SDS011;36361;38.954;-9.002;2023-09-08T05:39:22;8.77;;;6.53;;
50433;SDS011;36361;38.954;-9.002;2023-09-08T05:40:22;14.32;;;7.35;;
50433;SDS011;36361;38.954;-9.002;2023-09-08T05:41:24;12.07;;;7.43;;
50433;SDS011;36361;38.954;-9.002;2023-09-08T05:42:25;12.07;;;7.20;;
50433;SDS011;36361;38.954;-9.002;2023-09-08T05:43:26;9.82;;;7.30;;
50433;SDS011;36361;38.954;-9.002;2023-09-08T05:44:28;12.13;;;7.80;;
50433;SDS011;36361;38.954;-9.002;2023-09-08T05:45:28;12.38;;;7.35;;
50433;SDS011;36361;38.954;-9.002;2023-09-08T05:46:31;8.93;;;8.02;;
50433;SDS011;36361;38.954;-9.002;2023-09-08T05:47:32;13.73;;;8.10;;
50433;SDS011;36361;38.954;-9.002;2023-09-08T05:48:33;11.13;;;7.97;;
50433;SDS011;36361;38.954;-9.002;2023-09-08T05:49:34;12.07;;;8.40;;
50433;SDS011;36361;38.954;-9.002;2023-09-08T05:50:34;11.77;;;8.48;;
50433;SDS011;36361;38.954;-9.002;2023-09-08T05:51:36;14.57;;;8.73;;
50433;SDS011;36361;38.954;-9.002;2023-09-08T05:52:36;11.93;;;8.02;;
50433;SDS011;36361;38.954;-9.002;2023-09-08T05:53:37;11.82;;;7.95;;
50433;SDS011;36361;38.954;-9.002;2023-09-08T05:54:40;12.13;;;8.25;;
50433;SDS011;36361;38.954;-9.002;2023-09-08T05:55:41;13.18;;;9.40;;
50433;SDS011;36361;38.954;-9.002;2023-09-08T05:56:42;14.32;;;8.40;;
50433;SDS011;36361;38.954;-9.002;2023-09-08T05:57:42;15.90;;;9.73;;
50433;SDS011;36361;38.954;-9.002;2023-09-08T05:58:43;10.25;;;8.45;;
50433;SDS011;36361;38.954;-9.002;2023-09-08T05:59:44;13.73;;;8.98;;
50433;SDS011;36361;38.954;-9.002;2023-09-08T06:00:45;16.42;;;10.15;;
50433;SDS011;36361;38.954;-9.002;2023-09-08T06:01:47;12.05;;;8.85;;
50433;SDS011;36361;38.954;-9.002;2023-09-08T06:02:48;13.27;;;8.02;;
50433;SDS011;36361;38.954;-9.002;2023-09-08T06:03:50;14.40;;;10.65;;
50433;SDS011;36361;38.954;-9.002;2023-09-08T06:04:51;14.05;;;10.25;;
50433;SDS011;36361;38.954;-9.002;2023-09-08T06:05:52;14.23;;;9.20;;
50433;SDS011;36361;38.954;-9.002;2023-09-08T06:06:52;17.15;;;10.77;;
50433;SDS011;36361;38.954;-9.002;2023-09-08T06:07:54;14.10;;;9.68;;